sensor_id;sensor_type;location;lat;lon;timestamp;temperature;humidity
17364;DHT22;8799;43.594;13.526;2023-04-24T00:00:07;19.60;99.90
17364;DHT22;8799;43.594;13.526;2023-04-24T00:02:36;19.60;99.90
17364;DHT22;8799;43.594;13.526;2023-04-24T00:05:07;19.60;99.90
17364;DHT22;8799;43.594;13.526;2023-04-24T00:07:35;19.60;99.90
17364;DHT22;8799;43.594;13.526;2023-04-24T00:10:03;19.60;99.90
17364;DHT22;8799;43.594;13.526;2023-04-24T00:12:45;19.60;99.90
17364;DHT22;8799;43.594;13.526;2023-04-24T00:15:27;19.60;99.90
17364;DHT22;8799;43.594;13.526;2023-04-24T00:17:57;19.60;99.90
17364;DHT22;8799;43.594;13.526;2023-04-24T00:23:08;19.60;99.90
17364;DHT22;8799;43.594;13.526;2023-04-24T00:25:37;19.60;99.90
17364;DHT22;8799;43.594;13.526;2023-04-24T00:28:04;19.60;99.90
17364;DHT22;8799;43.594;13.526;2023-04-24T00:30:33;19.60;99.90
17364;DHT22;8799;43.594;13.526;2023-04-24T00:33:00;19.60;99.90
17364;DHT22;8799;43.594;13.526;2023-04-24T00:35:29;19.60;99.90
17364;DHT22;8799;43.594;13.526;2023-04-24T00:37:57;19.60;99.90
17364;DHT22;8799;43.594;13.526;2023-04-24T00:40:27;19.60;99.90
17364;DHT22;8799;43.594;13.526;2023-04-24T00:42:56;19.60;99.90
17364;DHT22;8799;43.594;13.526;2023-04-24T00:45:24;19.60;99.90
17364;DHT22;8799;43.594;13.526;2023-04-24T00:47:53;19.60;99.90
17364;DHT22;8799;43.594;13.526;2023-04-24T00:50:21;19.60;99.90
17364;DHT22;8799;43.594;13.526;2023-04-24T00:52:49;19.60;99.90
17364;DHT22;8799;43.594;13.526;2023-04-24T00:55:17;19.60;99.90
17364;DHT22;8799;43.594;13.526;2023-04-24T00:57:47;19.70;99.90
17364;DHT22;8799;43.594;13.526;2023-04-24T01:00:15;19.70;99.90
17364;DHT22;8799;43.594;13.526;2023-04-24T01:02:44;19.70;99.90
17364;DHT22;8799;43.594;13.526;2023-04-24T01:05:13;19.70;99.90
17364;DHT22;8799;43.594;13.526;2023-04-24T01:07:44;19.70;99.90
17364;DHT22;8799;43.594;13.526;2023-04-24T01:10:14;19.70;99.90
17364;DHT22;8799;43.594;13.526;2023-04-24T01:12:43;19.70;99.90
17364;DHT22;8799;43.594;13.526;2023-04-24T01:15:12;19.70;99.90
17364;DHT22;8799;43.594;13.526;2023-04-24T01:17:41;19.70;99.90
17364;DHT22;8799;43.594;13.526;2023-04-24T01:20:09;19.70;99.90
17364;DHT22;8799;43.594;13.526;2023-04-24T01:22:40;19.70;99.90
17364;DHT22;8799;43.594;13.526;2023-04-24T01:25:09;19.70;99.90
17364;DHT22;8799;43.594;13.526;2023-04-24T01:27:36;19.70;99.90
17364;DHT22;8799;43.594;13.526;2023-04-24T01:30:06;19.70;99.90
17364;DHT22;8799;43.594;13.526;2023-04-24T01:32:34;19.70;99.90
17364;DHT22;8799;43.594;13.526;2023-04-24T01:35:02;19.70;99.90
17364;DHT22;8799;43.594;13.526;2023-04-24T01:37:29;19.70;99.90
17364;DHT22;8799;43.594;13.526;2023-04-24T01:39:59;19.70;99.90
17364;DHT22;8799;43.594;13.526;2023-04-24T01:42:27;19.70;99.90
17364;DHT22;8799;43.594;13.526;2023-04-24T01:44:57;19.70;99.90
17364;DHT22;8799;43.594;13.526;2023-04-24T01:47:25;19.70;99.90
17364;DHT22;8799;43.594;13.526;2023-04-24T01:49:53;19.70;99.90
17364;DHT22;8799;43.594;13.526;2023-04-24T01:52:20;19.70;99.90
17364;DHT22;8799;43.594;13.526;2023-04-24T01:54:48;19.70;99.90
17364;DHT22;8799;43.594;13.526;2023-04-24T01:57:18;19.70;99.90
17364;DHT22;8799;43.594;13.526;2023-04-24T01:59:47;19.70;99.90
17364;DHT22;8799;43.594;13.526;2023-04-24T02:02:18;19.70;99.90
17364;DHT22;8799;43.594;13.526;2023-04-24T02:04:48;19.70;99.90
17364;DHT22;8799;43.594;13.526;2023-04-24T02:07:17;19.70;99.90
17364;DHT22;8799;43.594;13.526;2023-04-24T02:09:44;19.70;99.90
17364;DHT22;8799;43.594;13.526;2023-04-24T02:12:13;19.70;99.90
17364;DHT22;8799;43.594;13.526;2023-04-24T02:14:43;19.70;99.90
17364;DHT22;8799;43.594;13.526;2023-04-24T02:17:10;19.70;99.90
17364;DHT22;8799;43.594;13.526;2023-04-24T02:19:38;19.70;99.90
17364;DHT22;8799;43.594;13.526;2023-04-24T02:22:06;19.70;99.90
17364;DHT22;8799;43.594;13.526;2023-04-24T02:24:35;19.70;99.90
17364;DHT22;8799;43.594;13.526;2023-04-24T02:27:03;19.70;99.90
17364;DHT22;8799;43.594;13.526;2023-04-24T02:29:32;19.70;99.90
17364;DHT22;8799;43.594;13.526;2023-04-24T02:32:01;19.70;99.90
17364;DHT22;8799;43.594;13.526;2023-04-24T02:34:29;19.70;99.90
17364;DHT22;8799;43.594;13.526;2023-04-24T02:36:57;19.70;99.90
17364;DHT22;8799;43.594;13.526;2023-04-24T02:39:29;19.70;99.90
17364;DHT22;8799;43.594;13.526;2023-04-24T02:41:56;19.70;99.90
17364;DHT22;8799;43.594;13.526;2023-04-24T02:44:24;19.70;99.90
17364;DHT22;8799;43.594;13.526;2023-04-24T02:46:53;19.70;99.90
17364;DHT22;8799;43.594;13.526;2023-04-24T02:49:23;19.80;99.90
17364;DHT22;8799;43.594;13.526;2023-04-24T02:51:50;19.80;99.90
17364;DHT22;8799;43.594;13.526;2023-04-24T02:54:19;19.80;99.90
17364;DHT22;8799;43.594;13.526;2023-04-24T02:56:48;19.80;99.90
17364;DHT22;8799;43.594;13.526;2023-04-24T02:59:15;19.80;99.90
17364;DHT22;8799;43.594;13.526;2023-04-24T03:01:43;19.70;99.90
17364;DHT22;8799;43.594;13.526;2023-04-24T03:04:11;19.80;99.90
17364;DHT22;8799;43.594;13.526;2023-04-24T03:06:41;19.70;99.90
17364;DHT22;8799;43.594;13.526;2023-04-24T03:09:08;19.80;99.90
17364;DHT22;8799;43.594;13.526;2023-04-24T03:11:36;19.70;99.90
17364;DHT22;8799;43.594;13.526;2023-04-24T03:14:03;19.70;99.90
17364;DHT22;8799;43.594;13.526;2023-04-24T03:16:32;19.70;99.90
17364;DHT22;8799;43.594;13.526;2023-04-24T03:18:59;19.80;99.90
17364;DHT22;8799;43.594;13.526;2023-04-24T03:21:27;19.80;99.90
17364;DHT22;8799;43.594;13.526;2023-04-24T03:23:57;19.70;99.90
17364;DHT22;8799;43.594;13.526;2023-04-24T03:26:25;19.80;99.90
17364;DHT22;8799;43.594;13.526;2023-04-24T03:28:53;19.70;99.90
17364;DHT22;8799;43.594;13.526;2023-04-24T03:31:22;19.80;99.90
17364;DHT22;8799;43.594;13.526;2023-04-24T03:33:49;19.70;99.90
17364;DHT22;8799;43.594;13.526;2023-04-24T03:36:18;19.80;99.90
17364;DHT22;8799;43.594;13.526;2023-04-24T03:38:45;19.70;99.90
17364;DHT22;8799;43.594;13.526;2023-04-24T03:41:15;19.70;99.90
17364;DHT22;8799;43.594;13.526;2023-04-24T03:43:43;19.70;99.90
17364;DHT22;8799;43.594;13.526;2023-04-24T03:46:11;19.70;99.90
17364;DHT22;8799;43.594;13.526;2023-04-24T03:48:38;19.80;99.90
17364;DHT22;8799;43.594;13.526;2023-04-24T03:51:06;19.80;99.90
17364;DHT22;8799;43.594;13.526;2023-04-24T03:53:34;19.70;99.90
17364;DHT22;8799;43.594;13.526;2023-04-24T03:56:01;19.70;99.90
17364;DHT22;8799;43.594;13.526;2023-04-24T03:58:31;19.80;99.90
17364;DHT22;8799;43.594;13.526;2023-04-24T04:01:00;19.80;99.90
17364;DHT22;8799;43.594;13.526;2023-04-24T04:03:28;19.80;99.90
17364;DHT22;8799;43.594;13.526;2023-04-24T04:05:56;19.80;99.90
17364;DHT22;8799;43.594;13.526;2023-04-24T04:08:24;19.80;99.90
17364;DHT22;8799;43.594;13.526;2023-04-24T04:10:51;19.80;99.90
17364;DHT22;8799;43.594;13.526;2023-04-24T04:13:19;19.80;99.90
17364;DHT22;8799;43.594;13.526;2023-04-24T04:15:49;19.80;99.90
17364;DHT22;8799;43.594;13.526;2023-04-24T04:18:17;19.80;99.90
17364;DHT22;8799;43.594;13.526;2023-04-24T04:20:45;19.80;99.90
17364;DHT22;8799;43.594;13.526;2023-04-24T04:23:13;19.80;99.90
17364;DHT22;8799;43.594;13.526;2023-04-24T04:25:41;19.80;99.90
17364;DHT22;8799;43.594;13.526;2023-04-24T04:28:08;19.80;99.90
17364;DHT22;8799;43.594;13.526;2023-04-24T04:30:36;19.80;99.90
17364;DHT22;8799;43.594;13.526;2023-04-24T04:33:06;19.80;99.90
17364;DHT22;8799;43.594;13.526;2023-04-24T04:35:35;19.80;99.90
17364;DHT22;8799;43.594;13.526;2023-04-24T04:38:03;19.80;99.90
17364;DHT22;8799;43.594;13.526;2023-04-24T04:40:36;19.80;99.90
17364;DHT22;8799;43.594;13.526;2023-04-24T04:43:04;19.80;99.90
17364;DHT22;8799;43.594;13.526;2023-04-24T04:45:32;19.80;99.90
17364;DHT22;8799;43.594;13.526;2023-04-24T04:48:00;19.80;99.90
17364;DHT22;8799;43.594;13.526;2023-04-24T04:50:29;19.80;99.90
17364;DHT22;8799;43.594;13.526;2023-04-24T04:52:57;19.80;99.90
17364;DHT22;8799;43.594;13.526;2023-04-24T04:55:25;19.80;99.90
17364;DHT22;8799;43.594;13.526;2023-04-24T04:57:53;19.80;99.90
17364;DHT22;8799;43.594;13.526;2023-04-24T05:00:21;19.80;99.90
17364;DHT22;8799;43.594;13.526;2023-04-24T05:02:50;19.80;99.90
17364;DHT22;8799;43.594;13.526;2023-04-24T05:05:18;19.80;99.90
17364;DHT22;8799;43.594;13.526;2023-04-24T05:07:47;19.80;99.90
17364;DHT22;8799;43.594;13.526;2023-04-24T05:10:15;19.80;99.90
17364;DHT22;8799;43.594;13.526;2023-04-24T05:12:43;19.80;99.90
17364;DHT22;8799;43.594;13.526;2023-04-24T05:15:11;19.80;99.90
17364;DHT22;8799;43.594;13.526;2023-04-24T05:17:39;19.80;99.90
17364;DHT22;8799;43.594;13.526;2023-04-24T05:20:07;19.80;99.90
17364;DHT22;8799;43.594;13.526;2023-04-24T05:22:35;19.80;99.90
17364;DHT22;8799;43.594;13.526;2023-04-24T05:25:05;19.80;99.90
17364;DHT22;8799;43.594;13.526;2023-04-24T05:27:33;19.80;99.90
17364;DHT22;8799;43.594;13.526;2023-04-24T05:30:01;19.80;99.90
17364;DHT22;8799;43.594;13.526;2023-04-24T05:32:29;19.80;99.90
17364;DHT22;8799;43.594;13.526;2023-04-24T05:34:57;19.80;99.90
17364;DHT22;8799;43.594;13.526;2023-04-24T05:37:25;19.80;99.90
17364;DHT22;8799;43.594;13.526;2023-04-24T05:39:53;19.80;99.90
17364;DHT22;8799;43.594;13.526;2023-04-24T05:42:22;19.80;99.90
17364;DHT22;8799;43.594;13.526;2023-04-24T05:44:54;19.80;99.90
17364;DHT22;8799;43.594;13.526;2023-04-24T05:47:22;19.80;99.90
17364;DHT22;8799;43.594;13.526;2023-04-24T05:49:52;19.70;99.90
17364;DHT22;8799;43.594;13.526;2023-04-24T05:52:20;19.70;98.70
17364;DHT22;8799;43.594;13.526;2023-04-24T05:54:49;19.70;97.50
17364;DHT22;8799;43.594;13.526;2023-04-24T05:57:17;19.70;97.50
17364;DHT22;8799;43.594;13.526;2023-04-24T05:59:46;19.70;96.00
17364;DHT22;8799;43.594;13.526;2023-04-24T06:02:14;19.60;93.20
17364;DHT22;8799;43.594;13.526;2023-04-24T06:04:42;19.60;92.10
17364;DHT22;8799;43.594;13.526;2023-04-24T06:07:10;19.60;91.30
17364;DHT22;8799;43.594;13.526;2023-04-24T06:09:38;19.60;93.20
17364;DHT22;8799;43.594;13.526;2023-04-24T06:12:07;19.60;94.50
17364;DHT22;8799;43.594;13.526;2023-04-24T06:14:35;19.60;95.50
17364;DHT22;8799;43.594;13.526;2023-04-24T06:17:04;19.60;96.50
17364;DHT22;8799;43.594;13.526;2023-04-24T06:19:33;19.60;97.50
17364;DHT22;8799;43.594;13.526;2023-04-24T06:22:00;19.60;98.20
17364;DHT22;8799;43.594;13.526;2023-04-24T06:24:28;19.60;98.70
17364;DHT22;8799;43.594;13.526;2023-04-24T06:26:56;19.70;99.10
17364;DHT22;8799;43.594;13.526;2023-04-24T06:29:25;19.70;99.40
17364;DHT22;8799;43.594;13.526;2023-04-24T06:31:53;19.70;99.50
17364;DHT22;8799;43.594;13.526;2023-04-24T06:34:23;19.70;99.70
17364;DHT22;8799;43.594;13.526;2023-04-24T06:36:51;19.70;99.90
17364;DHT22;8799;43.594;13.526;2023-04-24T06:39:19;19.70;99.90
17364;DHT22;8799;43.594;13.526;2023-04-24T06:41:47;19.70;99.90
17364;DHT22;8799;43.594;13.526;2023-04-24T06:44:15;19.70;99.90
17364;DHT22;8799;43.594;13.526;2023-04-24T06:46:44;19.70;99.90
17364;DHT22;8799;43.594;13.526;2023-04-24T06:49:11;19.70;99.90
17364;DHT22;8799;43.594;13.526;2023-04-24T06:51:43;19.70;99.90
17364;DHT22;8799;43.594;13.526;2023-04-24T06:54:11;19.70;99.90
17364;DHT22;8799;43.594;13.526;2023-04-24T06:56:39;19.80;99.90
17364;DHT22;8799;43.594;13.526;2023-04-24T06:59:06;19.80;99.90
17364;DHT22;8799;43.594;13.526;2023-04-24T07:01:34;19.80;99.90
17364;DHT22;8799;43.594;13.526;2023-04-24T07:04:02;19.80;99.90
17364;DHT22;8799;43.594;13.526;2023-04-24T07:06:30;19.80;99.90
17364;DHT22;8799;43.594;13.526;2023-04-24T07:08:59;19.80;99.90
17364;DHT22;8799;43.594;13.526;2023-04-24T07:11:27;19.80;99.90
17364;DHT22;8799;43.594;13.526;2023-04-24T07:13:55;19.80;99.90
17364;DHT22;8799;43.594;13.526;2023-04-24T07:16:23;19.70;99.90
17364;DHT22;8799;43.594;13.526;2023-04-24T07:18:51;19.70;99.90
17364;DHT22;8799;43.594;13.526;2023-04-24T07:21:20;19.80;99.90
17364;DHT22;8799;43.594;13.526;2023-04-24T07:23:48;19.70;99.90
17364;DHT22;8799;43.594;13.526;2023-04-24T07:26:17;19.80;99.90
17364;DHT22;8799;43.594;13.526;2023-04-24T07:28:45;21.40;99.90
17364;DHT22;8799;43.594;13.526;2023-04-24T07:31:14;19.80;99.90
17364;DHT22;8799;43.594;13.526;2023-04-24T07:33:42;19.80;99.90
17364;DHT22;8799;43.594;13.526;2023-04-24T07:36:10;19.80;99.90
17364;DHT22;8799;43.594;13.526;2023-04-24T07:38:41;19.80;99.90
17364;DHT22;8799;43.594;13.526;2023-04-24T07:41:09;19.80;99.90
17364;DHT22;8799;43.594;13.526;2023-04-24T07:43:39;19.80;99.90
17364;DHT22;8799;43.594;13.526;2023-04-24T07:46:07;19.80;99.90
17364;DHT22;8799;43.594;13.526;2023-04-24T07:48:37;19.80;99.90
17364;DHT22;8799;43.594;13.526;2023-04-24T07:51:06;19.80;99.90
17364;DHT22;8799;43.594;13.526;2023-04-24T07:53:35;19.80;99.90
17364;DHT22;8799;43.594;13.526;2023-04-24T07:56:03;19.80;99.90
17364;DHT22;8799;43.594;13.526;2023-04-24T07:58:31;19.80;99.90
17364;DHT22;8799;43.594;13.526;2023-04-24T08:01:02;19.80;99.90
17364;DHT22;8799;43.594;13.526;2023-04-24T08:03:45;19.80;99.90
17364;DHT22;8799;43.594;13.526;2023-04-24T08:06:13;19.80;99.90
17364;DHT22;8799;43.594;13.526;2023-04-24T08:08:41;19.80;99.90
17364;DHT22;8799;43.594;13.526;2023-04-24T08:11:11;19.80;99.90
17364;DHT22;8799;43.594;13.526;2023-04-24T08:13:43;19.70;99.90
17364;DHT22;8799;43.594;13.526;2023-04-24T08:16:22;19.80;99.90
17364;DHT22;8799;43.594;13.526;2023-04-24T08:18:52;19.80;99.90
17364;DHT22;8799;43.594;13.526;2023-04-24T08:21:20;19.80;99.90
17364;DHT22;8799;43.594;13.526;2023-04-24T08:23:50;19.70;99.90
17364;DHT22;8799;43.594;13.526;2023-04-24T08:26:18;19.70;99.90
17364;DHT22;8799;43.594;13.526;2023-04-24T08:28:46;19.80;99.90
17364;DHT22;8799;43.594;13.526;2023-04-24T08:31:16;19.70;99.90
17364;DHT22;8799;43.594;13.526;2023-04-24T08:33:43;19.80;99.90
17364;DHT22;8799;43.594;13.526;2023-04-24T08:36:11;19.80;99.90
17364;DHT22;8799;43.594;13.526;2023-04-24T08:38:38;19.80;99.90
17364;DHT22;8799;43.594;13.526;2023-04-24T08:41:07;19.80;99.90
17364;DHT22;8799;43.594;13.526;2023-04-24T08:43:37;19.80;99.90
17364;DHT22;8799;43.594;13.526;2023-04-24T08:46:05;19.70;99.90
17364;DHT22;8799;43.594;13.526;2023-04-24T08:48:36;19.80;99.90
17364;DHT22;8799;43.594;13.526;2023-04-24T08:51:07;19.70;99.90
17364;DHT22;8799;43.594;13.526;2023-04-24T08:53:36;19.70;99.90
17364;DHT22;8799;43.594;13.526;2023-04-24T08:56:04;19.70;99.90
17364;DHT22;8799;43.594;13.526;2023-04-24T08:58:32;19.70;99.90
17364;DHT22;8799;43.594;13.526;2023-04-24T09:01:00;19.70;99.90
17364;DHT22;8799;43.594;13.526;2023-04-24T09:03:29;19.80;99.90
17364;DHT22;8799;43.594;13.526;2023-04-24T09:06:00;19.70;99.90
17364;DHT22;8799;43.594;13.526;2023-04-24T09:08:29;19.70;99.90
17364;DHT22;8799;43.594;13.526;2023-04-24T09:10:57;19.70;99.90
17364;DHT22;8799;43.594;13.526;2023-04-24T09:13:27;19.70;99.90
17364;DHT22;8799;43.594;13.526;2023-04-24T09:15:56;19.70;99.90
17364;DHT22;8799;43.594;13.526;2023-04-24T09:18:26;19.70;99.90
17364;DHT22;8799;43.594;13.526;2023-04-24T09:21:08;19.80;99.90
17364;DHT22;8799;43.594;13.526;2023-04-24T09:23:37;19.70;99.90
17364;DHT22;8799;43.594;13.526;2023-04-24T09:26:06;19.70;99.90
17364;DHT22;8799;43.594;13.526;2023-04-24T09:28:36;19.70;99.90
17364;DHT22;8799;43.594;13.526;2023-04-24T09:31:09;19.70;99.90
17364;DHT22;8799;43.594;13.526;2023-04-24T09:33:39;19.70;99.90
17364;DHT22;8799;43.594;13.526;2023-04-24T09:36:09;19.70;99.90
17364;DHT22;8799;43.594;13.526;2023-04-24T09:38:38;19.70;99.90
17364;DHT22;8799;43.594;13.526;2023-04-24T09:41:07;19.70;99.90
17364;DHT22;8799;43.594;13.526;2023-04-24T09:43:35;19.70;99.90
17364;DHT22;8799;43.594;13.526;2023-04-24T09:46:06;19.70;99.90
17364;DHT22;8799;43.594;13.526;2023-04-24T09:48:36;19.70;99.90
17364;DHT22;8799;43.594;13.526;2023-04-24T09:51:05;19.70;99.90
17364;DHT22;8799;43.594;13.526;2023-04-24T09:53:37;19.70;99.90
17364;DHT22;8799;43.594;13.526;2023-04-24T09:56:08;19.70;99.90
17364;DHT22;8799;43.594;13.526;2023-04-24T09:58:37;19.70;99.90
17364;DHT22;8799;43.594;13.526;2023-04-24T10:01:04;19.70;99.90
17364;DHT22;8799;43.594;13.526;2023-04-24T10:03:33;19.70;99.90
17364;DHT22;8799;43.594;13.526;2023-04-24T10:06:02;19.70;99.90
17364;DHT22;8799;43.594;13.526;2023-04-24T10:08:34;19.70;99.90
17364;DHT22;8799;43.594;13.526;2023-04-24T10:11:04;19.70;99.90
17364;DHT22;8799;43.594;13.526;2023-04-24T10:13:33;19.70;99.90
17364;DHT22;8799;43.594;13.526;2023-04-24T10:16:02;19.70;99.90
17364;DHT22;8799;43.594;13.526;2023-04-24T10:18:31;19.70;99.90
17364;DHT22;8799;43.594;13.526;2023-04-24T10:21:00;19.70;99.90
17364;DHT22;8799;43.594;13.526;2023-04-24T10:23:29;19.80;99.90
17364;DHT22;8799;43.594;13.526;2023-04-24T10:25:58;19.70;99.90
17364;DHT22;8799;43.594;13.526;2023-04-24T10:28:29;19.80;99.90
17364;DHT22;8799;43.594;13.526;2023-04-24T10:30:58;19.70;99.90
17364;DHT22;8799;43.594;13.526;2023-04-24T10:33:27;19.70;99.90
17364;DHT22;8799;43.594;13.526;2023-04-24T10:35:56;19.70;99.90
17364;DHT22;8799;43.594;13.526;2023-04-24T10:38:26;19.70;99.90
17364;DHT22;8799;43.594;13.526;2023-04-24T10:41:06;19.70;99.90
17364;DHT22;8799;43.594;13.526;2023-04-24T10:43:39;19.70;99.90
17364;DHT22;8799;43.594;13.526;2023-04-24T10:46:08;19.70;99.90
17364;DHT22;8799;43.594;13.526;2023-04-24T10:48:36;19.70;99.90
17364;DHT22;8799;43.594;13.526;2023-04-24T10:51:11;19.70;99.90
17364;DHT22;8799;43.594;13.526;2023-04-24T10:53:40;19.70;99.90
17364;DHT22;8799;43.594;13.526;2023-04-24T10:56:10;19.70;99.90
17364;DHT22;8799;43.594;13.526;2023-04-24T10:58:41;19.70;99.90
17364;DHT22;8799;43.594;13.526;2023-04-24T11:01:23;19.70;99.90
17364;DHT22;8799;43.594;13.526;2023-04-24T11:03:55;19.70;99.90
17364;DHT22;8799;43.594;13.526;2023-04-24T11:06:29;19.70;99.90
17364;DHT22;8799;43.594;13.526;2023-04-24T11:09:08;19.70;99.90
17364;DHT22;8799;43.594;13.526;2023-04-24T11:11:44;19.70;99.90
17364;DHT22;8799;43.594;13.526;2023-04-24T11:14:14;19.70;99.90
17364;DHT22;8799;43.594;13.526;2023-04-24T11:16:44;19.70;99.90
17364;DHT22;8799;43.594;13.526;2023-04-24T11:19:21;19.70;99.90
17364;DHT22;8799;43.594;13.526;2023-04-24T11:21:57;19.70;99.90
17364;DHT22;8799;43.594;13.526;2023-04-24T11:24:37;19.70;99.90
17364;DHT22;8799;43.594;13.526;2023-04-24T11:27:09;19.70;99.90
17364;DHT22;8799;43.594;13.526;2023-04-24T11:29:42;19.70;99.90
17364;DHT22;8799;43.594;13.526;2023-04-24T11:32:24;19.70;99.90
17364;DHT22;8799;43.594;13.526;2023-04-24T11:34:54;19.70;99.90
17364;DHT22;8799;43.594;13.526;2023-04-24T11:37:24;19.70;99.90
17364;DHT22;8799;43.594;13.526;2023-04-24T11:39:53;19.70;99.90
17364;DHT22;8799;43.594;13.526;2023-04-24T11:42:22;19.70;99.90
17364;DHT22;8799;43.594;13.526;2023-04-24T11:44:54;19.70;99.90
17364;DHT22;8799;43.594;13.526;2023-04-24T11:47:30;19.70;99.90
17364;DHT22;8799;43.594;13.526;2023-04-24T11:50:00;19.70;99.90
17364;DHT22;8799;43.594;13.526;2023-04-24T11:52:27;19.70;99.90
17364;DHT22;8799;43.594;13.526;2023-04-24T11:54:55;19.70;99.90
17364;DHT22;8799;43.594;13.526;2023-04-24T11:57:25;19.70;99.90
17364;DHT22;8799;43.594;13.526;2023-04-24T11:59:56;19.70;99.90
17364;DHT22;8799;43.594;13.526;2023-04-24T12:02:24;19.70;99.90
17364;DHT22;8799;43.594;13.526;2023-04-24T12:04:54;19.70;99.90
17364;DHT22;8799;43.594;13.526;2023-04-24T12:07:23;19.70;99.90
17364;DHT22;8799;43.594;13.526;2023-04-24T12:09:56;19.70;99.90
17364;DHT22;8799;43.594;13.526;2023-04-24T12:12:26;19.70;99.90
17364;DHT22;8799;43.594;13.526;2023-04-24T12:14:56;19.80;99.90
17364;DHT22;8799;43.594;13.526;2023-04-24T12:17:26;19.70;99.90
17364;DHT22;8799;43.594;13.526;2023-04-24T12:19:57;19.70;99.90
17364;DHT22;8799;43.594;13.526;2023-04-24T12:22:27;19.70;99.90
17364;DHT22;8799;43.594;13.526;2023-04-24T12:24:59;19.70;99.90
17364;DHT22;8799;43.594;13.526;2023-04-24T12:27:30;19.70;99.90
17364;DHT22;8799;43.594;13.526;2023-04-24T12:30:01;19.70;99.90
17364;DHT22;8799;43.594;13.526;2023-04-24T12:32:30;19.70;99.90
17364;DHT22;8799;43.594;13.526;2023-04-24T12:34:58;19.70;99.90
17364;DHT22;8799;43.594;13.526;2023-04-24T12:37:31;19.70;99.90
17364;DHT22;8799;43.594;13.526;2023-04-24T12:40:01;19.70;99.90
17364;DHT22;8799;43.594;13.526;2023-04-24T12:42:31;19.70;99.90
17364;DHT22;8799;43.594;13.526;2023-04-24T12:45:03;19.70;99.90
17364;DHT22;8799;43.594;13.526;2023-04-24T12:47:33;19.70;99.90
17364;DHT22;8799;43.594;13.526;2023-04-24T12:50:02;19.70;99.90
17364;DHT22;8799;43.594;13.526;2023-04-24T12:52:30;19.70;99.90
17364;DHT22;8799;43.594;13.526;2023-04-24T12:55:00;19.70;99.90
17364;DHT22;8799;43.594;13.526;2023-04-24T12:57:29;19.70;99.90
17364;DHT22;8799;43.594;13.526;2023-04-24T13:00:00;19.70;99.90
17364;DHT22;8799;43.594;13.526;2023-04-24T13:02:29;19.70;99.90
17364;DHT22;8799;43.594;13.526;2023-04-24T13:04:58;19.70;99.90
17364;DHT22;8799;43.594;13.526;2023-04-24T13:07:27;19.70;99.90
17364;DHT22;8799;43.594;13.526;2023-04-24T13:09:56;19.70;99.90
17364;DHT22;8799;43.594;13.526;2023-04-24T13:12:24;19.70;99.90
17364;DHT22;8799;43.594;13.526;2023-04-24T13:14:53;19.70;99.90
17364;DHT22;8799;43.594;13.526;2023-04-24T13:17:40;19.70;99.90
17364;DHT22;8799;43.594;13.526;2023-04-24T13:20:09;19.70;99.90
17364;DHT22;8799;43.594;13.526;2023-04-24T13:22:37;19.70;99.90
17364;DHT22;8799;43.594;13.526;2023-04-24T13:25:05;19.70;99.90
17364;DHT22;8799;43.594;13.526;2023-04-24T13:27:34;19.70;99.90
17364;DHT22;8799;43.594;13.526;2023-04-24T13:30:03;19.60;99.90
17364;DHT22;8799;43.594;13.526;2023-04-24T13:32:32;19.70;99.90
17364;DHT22;8799;43.594;13.526;2023-04-24T13:35:03;19.70;99.90
17364;DHT22;8799;43.594;13.526;2023-04-24T13:37:31;19.70;99.90
17364;DHT22;8799;43.594;13.526;2023-04-24T13:39:58;19.70;99.90
17364;DHT22;8799;43.594;13.526;2023-04-24T13:42:27;19.70;99.90
17364;DHT22;8799;43.594;13.526;2023-04-24T13:44:55;19.70;99.90
17364;DHT22;8799;43.594;13.526;2023-04-24T13:47:23;19.70;99.90
17364;DHT22;8799;43.594;13.526;2023-04-24T13:49:55;19.60;99.90
17364;DHT22;8799;43.594;13.526;2023-04-24T13:52:25;19.70;99.90
17364;DHT22;8799;43.594;13.526;2023-04-24T13:54:53;19.60;99.90
17364;DHT22;8799;43.594;13.526;2023-04-24T13:57:21;19.60;99.90
17364;DHT22;8799;43.594;13.526;2023-04-24T13:59:49;19.60;99.90
17364;DHT22;8799;43.594;13.526;2023-04-24T14:02:17;19.60;99.90
17364;DHT22;8799;43.594;13.526;2023-04-24T14:04:45;19.60;99.90
17364;DHT22;8799;43.594;13.526;2023-04-24T14:07:17;19.60;99.90
17364;DHT22;8799;43.594;13.526;2023-04-24T14:09:47;19.60;99.90
17364;DHT22;8799;43.594;13.526;2023-04-24T14:12:15;19.60;99.90
17364;DHT22;8799;43.594;13.526;2023-04-24T14:14:44;19.60;99.90
17364;DHT22;8799;43.594;13.526;2023-04-24T14:17:13;19.60;99.90
17364;DHT22;8799;43.594;13.526;2023-04-24T14:19:41;19.60;99.90
17364;DHT22;8799;43.594;13.526;2023-04-24T14:22:10;19.60;99.90
17364;DHT22;8799;43.594;13.526;2023-04-24T14:24:38;19.60;99.90
17364;DHT22;8799;43.594;13.526;2023-04-24T14:27:07;19.60;99.90
17364;DHT22;8799;43.594;13.526;2023-04-24T14:29:35;19.60;99.90
17364;DHT22;8799;43.594;13.526;2023-04-24T14:32:03;19.60;99.90
17364;DHT22;8799;43.594;13.526;2023-04-24T14:34:31;19.60;99.90
17364;DHT22;8799;43.594;13.526;2023-04-24T14:36:59;19.60;99.90
17364;DHT22;8799;43.594;13.526;2023-04-24T14:39:28;19.60;99.90
17364;DHT22;8799;43.594;13.526;2023-04-24T14:41:55;19.60;99.90
17364;DHT22;8799;43.594;13.526;2023-04-24T14:44:24;19.60;99.90
17364;DHT22;8799;43.594;13.526;2023-04-24T14:46:52;19.60;99.90
17364;DHT22;8799;43.594;13.526;2023-04-24T14:49:20;19.60;99.90
17364;DHT22;8799;43.594;13.526;2023-04-24T14:51:48;19.60;99.90
17364;DHT22;8799;43.594;13.526;2023-04-24T14:54:17;19.60;99.90
17364;DHT22;8799;43.594;13.526;2023-04-24T14:56:45;19.60;99.90
17364;DHT22;8799;43.594;13.526;2023-04-24T14:59:14;19.60;99.90
17364;DHT22;8799;43.594;13.526;2023-04-24T15:01:44;19.60;99.90
17364;DHT22;8799;43.594;13.526;2023-04-24T15:04:11;19.60;99.90
17364;DHT22;8799;43.594;13.526;2023-04-24T15:06:39;19.60;99.90
17364;DHT22;8799;43.594;13.526;2023-04-24T15:09:07;19.60;99.90
17364;DHT22;8799;43.594;13.526;2023-04-24T15:11:34;19.60;99.90
17364;DHT22;8799;43.594;13.526;2023-04-24T15:14:03;19.60;99.90
17364;DHT22;8799;43.594;13.526;2023-04-24T15:16:31;19.60;99.90
17364;DHT22;8799;43.594;13.526;2023-04-24T15:19:01;19.60;99.90
17364;DHT22;8799;43.594;13.526;2023-04-24T15:21:29;19.60;99.90
17364;DHT22;8799;43.594;13.526;2023-04-24T15:23:57;19.60;99.90
17364;DHT22;8799;43.594;13.526;2023-04-24T15:26:25;19.60;99.90
17364;DHT22;8799;43.594;13.526;2023-04-24T15:28:54;19.60;99.90
17364;DHT22;8799;43.594;13.526;2023-04-24T15:31:21;19.60;99.90
17364;DHT22;8799;43.594;13.526;2023-04-24T15:33:50;19.60;99.90
17364;DHT22;8799;43.594;13.526;2023-04-24T15:36:20;19.60;99.90
17364;DHT22;8799;43.594;13.526;2023-04-24T15:38:48;19.60;99.90
17364;DHT22;8799;43.594;13.526;2023-04-24T15:41:15;19.60;99.90
17364;DHT22;8799;43.594;13.526;2023-04-24T15:43:47;19.60;99.90